Time;durP1;ratioP1;P1;durP2;ratioP2;P2;SDS_P1;SDS_P2;PMS_P1;PMS_P2;Temp;Humidity;BMP_temperature;BMP_pressure;BME280_temperature;BME280_humidity;BME280_pressure;Samples;Min_cycle;Max_cycle;Signal;HPM_P1;HPM_P2
2021/06/08 00:01:55;;;;;;;16.17;8.07;;;17.60;82.30;;;;;;4998179;28;20147;-92
2021/06/08 00:04:21;;;;;;;16.25;8.18;;;17.60;82.30;;;;;;4998086;28;20493;-92
2021/06/08 00:06:48;;;;;;;15.98;8.32;;;17.60;82.20;;;;;;4998338;28;20057;-91
2021/06/08 00:09:17;;;;;;;18.75;8.23;;;17.60;82.20;;;;;;4998408;28;20022;-92
2021/06/08 00:11:45;;;;;;;17.90;9.27;;;17.60;82.10;;;;;;5014242;28;20075;-91
2021/06/08 00:14:11;;;;;;;16.83;8.98;;;17.60;82.00;;;;;;4999204;28;20490;-92
2021/06/08 00:16:36;;;;;;;17.40;9.60;;;17.60;82.00;;;;;;5018001;28;20030;-92
2021/06/08 00:19:02;;;;;;;19.77;10.15;;;17.60;82.00;;;;;;5001673;28;20482;-92
2021/06/08 00:21:28;;;;;;;20.63;10.13;;;17.60;82.00;;;;;;5001117;28;20033;-92
2021/06/08 00:23:53;;;;;;;19.77;10.65;;;17.60;82.10;;;;;;5000025;28;20427;-93
2021/06/08 00:26:19;;;;;;;19.13;9.75;;;17.60;82.10;;;;;;4999631;28;20516;-92
2021/06/08 00:28:44;;;;;;;19.10;10.05;;;17.60;82.20;;;;;;4998934;28;20018;-93
2021/06/08 00:31:10;;;;;;;19.27;9.68;;;17.50;82.10;;;;;;4999532;28;20022;-92
2021/06/08 00:33:36;;;;;;;19.15;9.60;;;17.50;82.10;;;;;;4998943;28;20022;-93
2021/06/08 00:36:02;;;;;;;18.58;10.00;;;17.50;82.00;;;;;;5017678;28;20088;-92
2021/06/08 00:38:27;;;;;;;17.23;9.32;;;17.60;82.00;;;;;;5017371;28;20037;-93
2021/06/08 00:40:53;;;;;;;16.88;10.00;;;17.60;81.90;;;;;;5002741;28;20026;-92
2021/06/08 00:43:24;;;;;;;18.30;9.57;;;17.60;81.80;;;;;;5019949;28;20026;-92
2021/06/08 00:45:53;;;;;;;17.00;9.00;;;17.60;81.70;;;;;;5017662;28;20026;-92
2021/06/08 00:48:20;;;;;;;16.98;9.20;;;17.60;81.60;;;;;;5003357;28;20057;-92
2021/06/08 00:50:46;;;;;;;16.00;8.98;;;17.60;81.60;;;;;;5003267;28;20121;-91
2021/06/08 00:53:12;;;;;;;17.38;8.80;;;17.60;81.60;;;;;;4984612;28;20026;-92
2021/06/08 00:55:38;;;;;;;16.17;9.15;;;17.60;81.70;;;;;;4984357;28;20523;-92
2021/06/08 00:58:04;;;;;;;17.63;9.95;;;17.60;82.20;;;;;;4982045;28;20076;-92
2021/06/08 01:00:29;;;;;;;18.92;9.52;;;17.60;81.50;;;;;;4998532;28;20034;-92
2021/06/08 01:02:55;;;;;;;17.48;9.85;;;17.60;81.50;;;;;;4980518;28;20026;-93
2021/06/08 01:05:21;;;;;;;18.88;10.45;;;17.50;81.40;;;;;;4999635;28;20123;-92
2021/06/08 01:07:46;;;;;;;17.90;10.68;;;17.60;81.50;;;;;;4997334;28;20031;-92
2021/06/08 01:10:13;;;;;;;19.30;11.18;;;17.60;81.50;;;;;;4995430;28;20026;-92
2021/06/08 01:12:39;;;;;;;19.27;11.55;;;17.60;81.50;;;;;;4992637;28;20037;-93
2021/06/08 01:15:05;;;;;;;18.95;11.07;;;17.50;81.50;;;;;;4988495;28;20433;-91
2021/06/08 01:17:31;;;;;;;18.83;10.88;;;17.60;81.30;;;;;;5003926;28;20019;-92
2021/06/08 01:19:58;;;;;;;19.83;11.77;;;17.50;81.40;;;;;;4986796;28;20029;-90
2021/06/08 01:22:24;;;;;;;18.90;11.68;;;17.50;81.40;;;;;;4987371;28;20022;-89
2021/06/08 01:24:51;;;;;;;18.92;10.82;;;17.50;81.40;;;;;;4999466;28;20022;-91
2021/06/08 01:27:18;;;;;;;17.90;10.75;;;17.50;81.40;;;;;;4998858;28;20030;-90
2021/06/08 01:29:46;;;;;;;17.15;10.77;;;17.40;81.30;;;;;;4987940;28;20069;-92
2021/06/08 01:32:12;;;;;;;18.65;10.00;;;17.40;81.40;;;;;;4989778;28;20468;-91
2021/06/08 01:34:39;;;;;;;17.77;9.65;;;17.40;81.40;;;;;;4989222;28;20019;-91
2021/06/08 01:37:05;;;;;;;17.83;10.15;;;17.40;81.40;;;;;;4989018;28;20056;-91
2021/06/08 01:39:32;;;;;;;17.83;10.95;;;17.40;81.30;;;;;;4988372;28;20030;-92
2021/06/08 01:41:58;;;;;;;18.50;11.10;;;17.40;81.30;;;;;;4986385;28;20026;-90
2021/06/08 01:44:24;;;;;;;18.10;10.32;;;17.40;81.30;;;;;;4994519;28;20036;-92
2021/06/08 01:46:50;;;;;;;19.30;11.07;;;17.40;81.30;;;;;;5005476;28;20069;-90
2021/06/08 01:49:15;;;;;;;20.17;12.40;;;17.40;81.30;;;;;;5008262;28;20098;-91
2021/06/08 01:51:55;;;;;;;18.85;11.20;;;17.40;81.30;;;;;;5007877;28;20051;-91
2021/06/08 01:54:43;;;;;;;18.92;10.77;;;17.40;81.40;;;;;;5022042;28;20061;-91
2021/06/08 01:57:27;;;;;;;19.08;11.85;;;17.40;81.40;;;;;;5024069;28;20072;-91
2021/06/08 02:00:06;;;;;;;18.20;11.95;;;17.30;81.50;;;;;;5023104;28;20057;-91
2021/06/08 02:02:53;;;;;;;18.35;11.13;;;17.30;81.60;;;;;;5023630;28;20048;-92
2021/06/08 02:05:22;;;;;;;18.77;11.93;;;17.30;81.50;;;;;;5033654;28;20033;-93
2021/06/08 02:08:15;;;;;;;17.48;10.82;;;17.30;81.70;;;;;;5033849;28;20026;-91
2021/06/08 02:10:53;;;;;;;17.27;10.27;;;17.30;81.70;;;;;;5023072;28;20037;-92
2021/06/08 02:14:00;;;;;;;19.00;10.23;;;17.30;81.70;;;;;;5023321;28;20068;-91
2021/06/08 02:16:35;;;;;;;17.42;9.60;;;17.30;81.60;;;;;;5016307;28;20073;-92
2021/06/08 02:19:01;;;;;;;19.90;10.15;;;17.30;81.60;;;;;;5015614;28;20030;-92
2021/06/08 02:21:38;;;;;;;17.98;9.25;;;17.20;81.60;;;;;;5015025;28;20479;-92
2021/06/08 02:24:06;;;;;;;18.73;9.95;;;17.20;81.60;;;;;;5015905;28;20026;-91
2021/06/08 02:26:33;;;;;;;17.35;9.38;;;17.20;81.50;;;;;;5015159;28;20054;-91
2021/06/08 02:29:01;;;;;;;17.42;9.32;;;17.30;81.40;;;;;;5017710;28;20030;-91
2021/06/08 02:31:28;;;;;;;16.38;9.32;;;17.20;81.30;;;;;;5017217;28;20022;-92
2021/06/08 02:33:55;;;;;;;17.88;10.00;;;17.30;81.30;;;;;;5017589;28;20030;-91
2021/06/08 02:36:22;;;;;;;18.27;9.65;;;17.20;81.20;;;;;;5017745;28;20053;-92
2021/06/08 02:38:49;;;;;;;17.13;8.98;;;17.30;81.20;;;;;;5021166;28;20050;-92
2021/06/08 02:41:16;;;;;;;17.27;9.35;;;17.30;81.10;;;;;;5018584;28;20029;-91
2021/06/08 02:43:45;;;;;;;17.80;9.75;;;17.30;81.10;;;;;;4989875;28;20030;-92
2021/06/08 02:46:11;;;;;;;17.35;9.50;;;17.30;81.10;;;;;;5013439;28;20493;-90
2021/06/08 02:48:38;;;;;;;17.80;9.38;;;17.20;81.10;;;;;;5013330;28;20030;-92
2021/06/08 02:51:05;;;;;;;18.25;8.85;;;17.20;81.00;;;;;;5000587;28;20045;-92
2021/06/08 02:53:33;;;;;;;18.15;8.75;;;17.20;81.00;;;;;;4983196;28;20018;-92
2021/06/08 02:55:58;;;;;;;17.13;9.48;;;17.20;81.20;;;;;;4994736;28;20057;-92
2021/06/08 02:58:26;;;;;;;16.90;9.13;;;17.20;81.30;;;;;;5003423;28;20076;-92
2021/06/08 03:00:52;;;;;;;17.83;8.88;;;17.10;81.30;;;;;;5003153;28;20029;-92
2021/06/08 03:03:22;;;;;;;18.67;9.43;;;17.10;81.20;;;;;;5002464;28;20037;-92
2021/06/08 03:06:00;;;;;;;17.02;8.68;;;17.20;81.20;;;;;;5002000;28;20034;-91
2021/06/08 03:09:13;;;;;;;16.25;8.75;;;17.10;81.00;;;;;;5003929;28;20045;-93
2021/06/08 03:11:42;;;;;;;15.32;8.00;;;17.20;81.00;;;;;;4920834;29;20024;-93
2021/06/08 03:14:12;;;;;;;15.73;8.95;;;17.10;81.10;;;;;;4920285;29;20467;-94
2021/06/08 03:16:42;;;;;;;15.80;8.82;;;17.10;81.00;;;;;;4961695;28;20364;-92
2021/06/08 03:19:09;;;;;;;18.08;9.45;;;17.10;81.00;;;;;;4983302;28;20461;-93
2021/06/08 03:21:39;;;;;;;19.05;9.80;;;17.10;81.00;;;;;;4999148;28;20026;-93
2021/06/08 03:24:07;;;;;;;17.73;9.73;;;17.10;81.00;;;;;;5000044;28;20462;-93
2021/06/08 03:26:35;;;;;;;16.40;9.13;;;17.00;81.10;;;;;;5015738;28;20042;-92
2021/06/08 03:29:05;;;;;;;17.27;9.50;;;17.00;81.10;;;;;;5015868;28;20554;-92
2021/06/08 03:31:34;;;;;;;17.38;9.00;;;17.00;81.20;;;;;;4983050;28;20270;-93
2021/06/08 03:34:00;;;;;;;17.70;9.38;;;17.00;81.30;;;;;;5007825;28;20436;-92
2021/06/08 03:36:26;;;;;;;18.73;10.10;;;16.90;81.30;;;;;;5001389;28;20046;-93
2021/06/08 03:38:53;;;;;;;20.65;9.90;;;17.00;81.30;;;;;;5001721;28;20026;-94
2021/06/08 03:41:21;;;;;;;17.45;9.43;;;17.00;81.30;;;;;;5001018;28;20347;-93
2021/06/08 03:43:47;;;;;;;19.38;9.77;;;17.00;81.10;;;;;;5001718;28;20072;-93
2021/06/08 03:46:13;;;;;;;17.23;9.90;;;17.00;81.10;;;;;;5017755;28;20034;-93
2021/06/08 03:48:38;;;;;;;17.08;9.98;;;17.00;81.10;;;;;;5001799;28;20026;-92
2021/06/08 03:51:05;;;;;;;19.58;10.02;;;17.00;81.10;;;;;;5016900;28;20461;-92
2021/06/08 03:53:31;;;;;;;19.55;9.82;;;17.10;81.20;;;;;;5017441;28;20061;-93
2021/06/08 03:55:57;;;;;;;18.50;9.43;;;17.00;81.10;;;;;;4982886;28;20030;-92
2021/06/08 03:58:23;;;;;;;18.40;9.98;;;17.00;81.00;;;;;;4998510;28;20054;-92
2021/06/08 04:00:58;;;;;;;20.98;10.20;;;17.00;81.10;;;;;;5001241;28;20030;-93
2021/06/08 04:03:25;;;;;;;17.95;10.15;;;17.00;81.20;;;;;;5002565;28;20114;-93
2021/06/08 04:05:54;;;;;;;18.17;9.60;;;16.90;81.20;;;;;;5004073;28;20026;-92
2021/06/08 04:08:19;;;;;;;17.65;10.10;;;17.00;81.30;;;;;;5005207;28;20089;-92
2021/06/08 04:10:45;;;;;;;16.88;9.77;;;17.00;81.90;;;;;;5013295;28;20030;-91
2021/06/08 04:13:11;;;;;;;18.48;9.95;;;17.00;81.20;;;;;;5016626;28;20156;-92
2021/06/08 04:15:38;;;;;;;17.40;9.32;;;17.00;81.90;;;;;;5003285;28;20030;-92
2021/06/08 04:18:04;;;;;;;19.20;9.68;;;17.00;81.20;;;;;;4998552;28;20124;-93
2021/06/08 04:20:30;;;;;;;18.40;9.73;;;17.00;81.30;;;;;;4998082;28;20026;-92
2021/06/08 04:22:58;;;;;;;16.27;9.35;;;16.90;81.40;;;;;;4997763;28;20033;-92
2021/06/08 04:25:25;;;;;;;18.73;9.80;;;16.90;81.60;;;;;;4998072;28;20104;-93
2021/06/08 04:27:52;;;;;;;17.73;10.10;;;16.90;81.60;;;;;;4998031;28;20037;-93
2021/06/08 04:30:18;;;;;;;18.30;9.75;;;16.90;81.60;;;;;;4997900;28;20117;-92
2021/06/08 04:32:46;;;;;;;18.20;10.13;;;16.80;81.60;;;;;;4997055;28;20026;-92
2021/06/08 04:35:14;;;;;;;19.00;9.88;;;16.90;81.80;;;;;;4998091;28;20053;-92
2021/06/08 04:37:40;;;;;;;19.35;10.07;;;16.80;81.80;;;;;;4997846;28;20030;-92
2021/06/08 04:40:08;;;;;;;17.83;9.40;;;16.80;81.70;;;;;;4996730;28;20030;-93
2021/06/08 04:42:38;;;;;;;19.10;9.95;;;16.90;81.80;;;;;;4998671;28;20022;-93
2021/06/08 04:45:04;;;;;;;16.95;9.95;;;16.80;81.90;;;;;;4998633;28;20032;-92
2021/06/08 04:47:30;;;;;;;17.20;9.88;;;16.80;81.90;;;;;;4997309;28;20030;-92
2021/06/08 04:49:56;;;;;;;17.95;10.55;;;16.80;82.00;;;;;;4996277;28;20026;-93
2021/06/08 04:52:22;;;;;;;18.08;10.07;;;16.80;82.00;;;;;;4995743;28;20110;-93
2021/06/08 04:54:47;;;;;;;17.60;9.50;;;16.80;82.70;;;;;;4997704;28;20054;-92
2021/06/08 04:57:15;;;;;;;16.45;9.63;;;16.80;82.10;;;;;;4996942;28;20030;-93
2021/06/08 05:00:00;;;;;;;18.10;10.07;;;16.80;82.10;;;;;;4997368;28;20022;-92
2021/06/08 05:02:36;;;;;;;16.60;10.13;;;16.80;82.30;;;;;;4997024;28;20396;-93
2021/06/08 05:05:06;;;;;;;18.60;10.07;;;16.80;82.10;;;;;;4995853;28;20037;-93
2021/06/08 05:07:37;;;;;;;18.00;10.25;;;16.90;82.00;;;;;;4995456;28;20399;-93
2021/06/08 05:10:06;;;;;;;18.73;10.80;;;17.00;81.80;;;;;;4994807;28;20105;-93
2021/06/08 05:22:23;;;;;;;20.60;10.73;;;16.90;81.90;;;;;;4991606;23;20468;-69
2021/06/08 05:24:51;;;;;;;18.55;11.10;;;16.90;81.90;;;;;;4989971;28;20022;-70
2021/06/08 05:27:19;;;;;;;18.73;11.25;;;16.90;82.00;;;;;;4989734;28;20044;-69
2021/06/08 05:29:44;;;;;;;21.40;11.02;;;17.00;82.00;;;;;;4989402;28;20081;-69
2021/06/08 05:32:12;;;;;;;23.13;11.02;;;17.00;82.00;;;;;;4991015;28;20034;-70
2021/06/08 05:34:43;;;;;;;23.07;14.03;;;17.00;81.80;;;;;;4995694;28;20105;-69
2021/06/08 05:37:11;;;;;;;22.88;11.88;;;17.00;81.90;;;;;;5001161;28;20348;-69
2021/06/08 05:39:37;;;;;;;22.00;12.40;;;17.00;82.00;;;;;;4986671;28;20034;-69
2021/06/08 05:42:06;;;;;;;18.88;11.35;;;17.00;82.00;;;;;;4990049;28;20026;-69
2021/06/08 05:44:34;;;;;;;18.23;11.43;;;17.10;82.00;;;;;;4989496;28;20493;-69
2021/06/08 05:47:00;;;;;;;19.92;11.75;;;17.10;82.10;;;;;;4983501;28;20053;-69
2021/06/08 05:49:26;;;;;;;18.73;11.70;;;17.10;82.30;;;;;;4978576;28;20054;-70
2021/06/08 05:51:52;;;;;;;22.65;13.10;;;17.10;82.20;;;;;;4974357;28;20444;-69
2021/06/08 05:54:18;;;;;;;18.20;11.68;;;17.10;82.20;;;;;;4983429;28;20113;-70
2021/06/08 05:56:44;;;;;;;21.42;11.65;;;17.20;82.10;;;;;;4988573;28;20058;-73
2021/06/08 05:59:14;;;;;;;19.98;12.15;;;17.20;82.10;;;;;;4986498;28;20491;-70
2021/06/08 06:01:40;;;;;;;21.05;12.23;;;17.30;82.00;;;;;;4987949;28;20073;-72
2021/06/08 06:04:06;;;;;;;20.67;12.32;;;17.20;82.10;;;;;;4989713;28;20030;-74
2021/06/08 06:06:32;;;;;;;24.10;12.65;;;17.20;82.20;;;;;;4986776;28;20057;-72
2021/06/08 06:08:59;;;;;;;21.73;12.88;;;17.20;82.30;;;;;;4988658;28;20065;-73
2021/06/08 06:11:29;;;;;;;21.75;12.40;;;17.30;82.30;;;;;;4989384;28;20034;-75
2021/06/08 06:14:06;;;;;;;21.23;12.15;;;17.20;82.20;;;;;;4987774;28;20164;-75
2021/06/08 06:16:35;;;;;;;21.92;14.05;;;17.30;82.20;;;;;;4988729;28;20057;-76
2021/06/08 06:19:03;;;;;;;20.35;13.13;;;17.30;82.30;;;;;;4984582;28;20478;-75
2021/06/08 06:21:29;;;;;;;22.38;13.80;;;17.40;82.20;;;;;;4987006;28;20650;-75
2021/06/08 06:23:55;;;;;;;23.05;13.00;;;17.40;82.30;;;;;;4988228;28;20109;-74
2021/06/08 06:26:23;;;;;;;21.27;13.48;;;17.40;82.10;;;;;;4988894;28;20126;-73
2021/06/08 06:28:48;;;;;;;20.60;13.20;;;17.40;82.10;;;;;;4990582;28;20481;-73
2021/06/08 06:31:14;;;;;;;23.17;13.55;;;17.40;82.10;;;;;;4980659;28;20034;-73
2021/06/08 06:33:47;;;;;;;21.92;14.20;;;17.40;82.20;;;;;;4982214;28;20515;-77
2021/06/08 06:36:14;;;;;;;23.02;12.88;;;17.40;82.20;;;;;;4980620;28;20544;-76
2021/06/08 06:38:44;;;;;;;21.92;14.07;;;17.40;82.20;;;;;;4991461;28;20041;-73
2021/06/08 06:41:12;;;;;;;23.75;15.23;;;17.40;82.20;;;;;;4993191;28;20042;-73
2021/06/08 06:43:39;;;;;;;22.43;14.33;;;17.40;82.20;;;;;;4991451;28;20397;-73
2021/06/08 06:46:05;;;;;;;20.23;13.48;;;17.40;82.20;;;;;;4991379;28;20121;-73
2021/06/08 06:48:30;;;;;;;22.05;14.73;;;17.50;82.20;;;;;;4986037;28;20561;-73
2021/06/08 06:50:56;;;;;;;22.42;13.68;;;17.40;82.10;;;;;;4989520;28;20042;-73
2021/06/08 06:53:22;;;;;;;21.92;14.07;;;17.50;82.10;;;;;;4990841;28;20473;-73
2021/06/08 06:55:52;;;;;;;24.73;14.40;;;17.50;82.10;;;;;;4988616;28;20037;-73
2021/06/08 06:58:20;;;;;;;23.63;14.82;;;17.50;82.30;;;;;;4984535;28;20034;-73
2021/06/08 07:00:46;;;;;;;25.52;14.25;;;17.50;82.20;;;;;;4990246;28;20032;-73
2021/06/08 07:03:14;;;;;;;22.13;14.23;;;17.50;82.20;;;;;;4991404;28;20473;-73
2021/06/08 07:05:42;;;;;;;24.13;14.40;;;17.60;82.20;;;;;;4990784;28;20532;-74
2021/06/08 07:08:09;;;;;;;26.90;15.30;;;17.60;82.10;;;;;;4994776;28;20046;-73
2021/06/08 07:10:35;;;;;;;26.48;15.77;;;17.60;82.10;;;;;;4985467;28;20480;-73
2021/06/08 07:13:06;;;;;;;23.42;15.63;;;17.60;82.10;;;;;;4985982;28;20113;-73
2021/06/08 07:15:33;;;;;;;28.02;15.90;;;17.60;82.20;;;;;;4985474;28;20034;-73
2021/06/08 07:17:59;;;;;;;28.98;16.10;;;17.60;82.30;;;;;;4989320;28;20045;-74
2021/06/08 07:20:26;;;;;;;27.95;16.45;;;17.60;82.10;;;;;;4989302;28;20050;-73
2021/06/08 07:22:53;;;;;;;30.92;18.05;;;17.60;82.10;;;;;;4989962;28;20022;-73
2021/06/08 07:25:20;;;;;;;30.15;16.33;;;17.60;82.30;;;;;;4988860;28;20084;-75
2021/06/08 07:27:46;;;;;;;30.85;17.10;;;17.60;82.10;;;;;;4989433;28;20019;-74
2021/06/08 07:30:17;;;;;;;33.17;19.77;;;17.60;82.30;;;;;;4991256;28;20405;-73
2021/06/08 07:33:13;;;;;;;35.35;20.15;;;17.60;82.70;;;;;;4988558;28;20487;-72
2021/06/08 07:35:49;;;;;;;34.63;18.92;;;17.60;82.50;;;;;;4983657;28;20042;-73
2021/06/08 07:38:37;;;;;;;28.98;18.17;;;17.60;82.40;;;;;;4987915;28;20403;-73
2021/06/08 07:41:07;;;;;;;27.95;17.75;;;17.60;82.50;;;;;;4972450;28;20030;-76
2021/06/08 07:43:42;;;;;;;30.58;18.35;;;17.70;82.40;;;;;;4988908;28;20113;-76
2021/06/08 07:46:15;;;;;;;31.38;17.27;;;17.70;82.50;;;;;;4989542;28;20271;-76
2021/06/08 07:48:43;;;;;;;33.97;18.67;;;17.70;82.60;;;;;;4982315;28;20030;-76
2021/06/08 07:51:11;;;;;;;29.00;18.73;;;17.60;82.70;;;;;;4978003;28;20502;-78
2021/06/08 07:53:37;;;;;;;31.38;19.40;;;17.60;82.80;;;;;;4987229;28;20077;-77
2021/06/08 07:56:04;;;;;;;32.67;19.08;;;17.60;83.10;;;;;;4989511;28;20473;-77
2021/06/08 07:58:30;;;;;;;33.00;18.52;;;17.70;83.00;;;;;;4988543;28;20429;-77
2021/06/08 08:00:58;;;;;;;35.35;18.45;;;17.70;82.80;;;;;;4991037;28;20035;-77
2021/06/08 08:03:26;;;;;;;30.55;18.92;;;17.80;82.70;;;;;;4985008;28;20034;-78
2021/06/08 08:06:03;;;;;;;30.23;19.25;;;17.80;82.80;;;;;;4991761;28;20096;-79
2021/06/08 08:08:31;;;;;;;31.85;18.45;;;17.90;82.70;;;;;;4993713;28;20034;-77
2021/06/08 08:10:57;;;;;;;30.60;18.95;;;17.80;82.70;;;;;;4992298;28;20026;-77
2021/06/08 08:13:27;;;;;;;28.55;18.40;;;17.90;82.80;;;;;;4989812;28;20104;-77
2021/06/08 08:15:53;;;;;;;31.35;18.67;;;18.00;82.60;;;;;;4988788;28;20111;-77
2021/06/08 08:18:20;;;;;;;32.33;18.73;;;18.00;82.50;;;;;;4990013;28;20030;-77
2021/06/08 08:20:58;;;;;;;35.85;18.90;;;18.10;82.40;;;;;;4989599;28;20096;-77
2021/06/08 08:23:27;;;;;;;29.33;18.48;;;18.20;82.60;;;;;;4990111;28;20449;-77
2021/06/08 08:25:54;;;;;;;29.17;18.60;;;18.20;82.20;;;;;;4981972;28;20183;-76
2021/06/08 08:28:21;;;;;;;28.27;20.02;;;18.30;82.20;;;;;;4988288;28;20033;-77
2021/06/08 08:30:46;;;;;;;27.25;20.15;;;18.30;82.00;;;;;;4989135;28;20034;-77
2021/06/08 08:33:12;;;;;;;30.77;19.55;;;18.40;82.00;;;;;;4990052;28;20023;-76
2021/06/08 08:35:39;;;;;;;29.23;20.80;;;18.40;82.20;;;;;;4987871;28;20026;-76
2021/06/08 08:38:05;;;;;;;29.65;19.95;;;18.40;82.00;;;;;;4988001;28;20026;-77
2021/06/08 08:40:31;;;;;;;27.70;19.40;;;18.40;82.10;;;;;;4988299;28;20046;-77
2021/06/08 08:43:01;;;;;;;29.00;20.73;;;18.40;82.10;;;;;;4987785;28;20030;-78
2021/06/08 08:45:28;;;;;;;29.42;21.02;;;18.40;82.10;;;;;;4988362;28;20049;-77
2021/06/08 08:47:55;;;;;;;32.63;21.20;;;18.40;82.10;;;;;;4988172;28;20081;-77
2021/06/08 08:50:20;;;;;;;35.65;22.20;;;18.50;82.30;;;;;;4987474;28;20487;-73
2021/06/08 08:52:56;;;;;;;32.72;23.25;;;18.50;82.20;;;;;;4993407;28;20053;-73
2021/06/08 08:55:28;;;;;;;30.90;22.88;;;18.50;82.20;;;;;;4987113;28;20049;-73
2021/06/08 08:57:56;;;;;;;37.08;23.52;;;18.50;82.30;;;;;;4987884;28;20087;-73
2021/06/08 09:00:25;;;;;;;30.40;21.88;;;18.40;82.30;;;;;;4988140;28;20022;-75
2021/06/08 09:02:56;;;;;;;37.90;23.35;;;18.40;82.70;;;;;;4986317;28;20022;-73
2021/06/08 09:05:23;;;;;;;31.88;22.50;;;18.50;82.50;;;;;;4987036;28;20109;-72
2021/06/08 09:07:52;;;;;;;36.28;24.52;;;18.50;82.50;;;;;;4987564;28;20056;-72
2021/06/08 09:10:19;;;;;;;;;;;18.50;82.50;;;;;;4989555;28;20109;-72
2021/06/08 09:12:44;;;;;;;43.03;25.58;;;18.50;82.50;;;;;;4988421;28;20218;-72
2021/06/08 09:15:11;;;;;;;39.15;25.30;;;18.60;82.60;;;;;;4989651;28;20141;-71
2021/06/08 09:17:39;;;;;;;38.03;25.15;;;18.60;82.70;;;;;;4986148;28;20034;-72
2021/06/08 09:20:06;;;;;;;47.92;24.65;;;18.60;83.00;;;;;;4989263;28;20076;-72
2021/06/08 09:22:48;;;;;;;44.13;26.50;;;18.60;82.50;;;;;;4987712;28;20389;-72
2021/06/08 09:25:14;;;;;;;43.33;26.60;;;18.70;82.50;;;;;;4988315;28;20042;-71
2021/06/08 09:27:40;;;;;;;43.88;27.05;;;18.80;82.30;;;;;;4988728;28;20038;-71
2021/06/08 09:30:15;;;;;;;37.15;24.70;;;18.80;82.40;;;;;;4989358;28;20029;-71
2021/06/08 09:32:40;;;;;;;38.67;24.60;;;18.80;82.20;;;;;;4988010;28;20457;-71
2021/06/08 09:35:06;;;;;;;39.05;25.80;;;18.90;82.10;;;;;;4988981;28;20096;-71
2021/06/08 09:37:33;;;;;;;39.70;24.17;;;18.90;82.00;;;;;;4987410;28;20030;-72
2021/06/08 09:40:00;;;;;;;37.38;24.88;;;19.00;82.00;;;;;;4989048;28;20030;-71
2021/06/08 09:42:27;;;;;;;38.78;25.38;;;19.10;81.80;;;;;;4988472;28;20062;-70
2021/06/08 09:44:53;;;;;;;49.75;25.65;;;19.20;81.60;;;;;;4989783;28;20402;-70
2021/06/08 09:47:27;;;;;;;37.20;24.55;;;19.20;81.60;;;;;;4986704;28;20065;-71
2021/06/08 09:49:52;;;;;;;35.47;24.08;;;19.30;81.50;;;;;;4989194;28;20037;-71
2021/06/08 09:52:20;;;;;;;38.78;24.52;;;19.40;81.30;;;;;;4988586;28;20393;-74
2021/06/08 09:54:50;;;;;;;39.10;24.67;;;19.50;81.10;;;;;;4989175;28;20088;-70
2021/06/08 09:57:17;;;;;;;34.00;23.85;;;19.60;81.00;;;;;;4987052;28;20299;-70
2021/06/08 09:59:51;;;;;;;31.70;22.77;;;19.70;80.70;;;;;;4988184;28;20096;-72
2021/06/08 10:02:33;;;;;;;34.65;23.70;;;19.70;80.50;;;;;;4988892;28;20495;-70
2021/06/08 10:05:20;;;;;;;32.28;23.10;;;19.80;80.50;;;;;;4989109;28;20084;-70
2021/06/08 10:07:48;;;;;;;32.97;24.42;;;19.80;80.30;;;;;;4988395;28;20103;-74
2021/06/08 10:10:24;;;;;;;33.28;23.52;;;19.90;80.00;;;;;;4989034;28;20038;-74
2021/06/08 10:13:02;;;;;;;33.33;23.45;;;20.10;80.00;;;;;;4988631;28;20026;-75
2021/06/08 10:15:56;;;;;;;34.08;23.23;;;20.10;79.90;;;;;;4988293;28;20038;-71
2021/06/08 10:18:23;;;;;;;34.45;24.00;;;20.20;79.60;;;;;;4988698;28;20053;-72
2021/06/08 10:20:56;;;;;;;31.67;22.27;;;20.40;79.30;;;;;;4977054;28;20093;-75
2021/06/08 10:23:31;;;;;;;34.30;23.67;;;20.60;79.10;;;;;;4987832;28;20038;-72
2021/06/08 10:25:58;;;;;;;30.05;23.77;;;20.70;78.40;;;;;;4992430;28;20482;-73
2021/06/08 10:28:27;;;;;;;32.60;23.98;;;20.70;78.30;;;;;;4988682;28;20366;-73
2021/06/08 10:30:54;;;;;;;;;;;20.80;78.20;;;;;;4989569;28;20493;-72
2021/06/08 10:33:22;;;;;;;29.67;21.05;;;20.80;77.90;;;;;;4983816;28;19913;-73
2021/06/08 10:35:49;;;;;;;30.73;21.27;;;20.70;77.90;;;;;;4989197;28;20504;-72
2021/06/08 10:38:15;;;;;;;31.08;21.70;;;20.70;78.10;;;;;;4987953;28;20043;-71
2021/06/08 10:40:45;;;;;;;30.98;20.17;;;20.80;78.20;;;;;;4984515;28;20523;-71
2021/06/08 10:43:22;;;;;;;31.20;20.23;;;20.80;78.00;;;;;;4988151;28;20126;-71
2021/06/08 10:45:50;;;;;;;30.42;19.33;;;20.80;78.00;;;;;;4987527;28;20098;-73
2021/06/08 10:48:21;;;;;;;27.77;19.13;;;20.90;78.00;;;;;;4986401;28;20026;-73
2021/06/08 10:50:49;;;;;;;29.13;19.05;;;20.90;77.80;;;;;;4987397;28;20585;-71
2021/06/08 10:53:32;;;;;;;25.13;17.77;;;20.90;77.50;;;;;;4987060;28;20077;-73
2021/06/08 10:56:00;;;;;;;30.30;18.15;;;21.00;77.40;;;;;;4987672;28;20039;-73
2021/06/08 10:58:48;;;;;;;25.15;17.30;;;21.00;77.20;;;;;;4986130;28;20031;-72
2021/06/08 11:01:41;;;;;;;28.17;15.50;;;21.00;77.20;;;;;;4987689;28;20026;-73
2021/06/08 11:04:22;;;;;;;32.60;15.57;;;21.10;76.90;;;;;;4985457;28;20034;-72
2021/06/08 11:06:59;;;;;;;25.75;17.25;;;21.10;76.10;;;;;;4987446;28;20098;-73
2021/06/08 11:09:24;;;;;;;26.70;17.67;;;21.20;76.90;;;;;;4986638;28;20378;-73
2021/06/08 11:11:57;;;;;;;26.85;16.63;;;21.30;76.50;;;;;;4987646;28;20045;-73
2021/06/08 11:14:32;;;;;;;23.92;16.58;;;21.40;76.50;;;;;;4989492;28;20033;-73
2021/06/08 11:16:58;;;;;;;23.63;15.68;;;21.40;75.70;;;;;;4991124;28;20101;-73
2021/06/08 11:19:52;;;;;;;24.10;16.23;;;21.50;75.90;;;;;;4984666;28;20023;-76
2021/06/08 11:22:20;;;;;;;22.42;14.77;;;21.50;75.30;;;;;;4991717;28;20224;-76
2021/06/08 11:24:48;;;;;;;23.77;14.90;;;21.50;75.80;;;;;;4991097;28;20029;-78
2021/06/08 11:27:15;;;;;;;22.42;15.05;;;21.60;75.00;;;;;;4991425;28;20031;-78
2021/06/08 11:29:45;;;;;;;22.27;13.73;;;21.60;75.20;;;;;;4994292;28;20030;-77
2021/06/08 11:32:29;;;;;;;23.17;15.15;;;21.70;75.10;;;;;;4999430;28;20085;-79
2021/06/08 11:35:09;;;;;;;22.55;15.32;;;21.80;74.80;;;;;;5000832;28;20045;-78
2021/06/08 11:37:53;;;;;;;22.05;14.38;;;21.90;74.60;;;;;;5004155;28;20026;-78
2021/06/08 11:40:34;;;;;;;21.58;14.93;;;22.00;74.00;;;;;;5004321;28;20452;-78
2021/06/08 11:43:02;;;;;;;25.38;14.90;;;22.00;73.90;;;;;;5005215;28;20030;-78
2021/06/08 11:45:36;;;;;;;20.92;15.00;;;22.00;74.10;;;;;;4987849;28;20053;-79
2021/06/08 11:48:02;;;;;;;21.27;15.15;;;22.00;73.90;;;;;;5000658;28;20026;-78
2021/06/08 11:50:38;;;;;;;22.33;14.93;;;22.00;74.00;;;;;;4996216;28;20033;-78
2021/06/08 11:53:13;;;;;;;27.10;15.88;;;22.00;74.00;;;;;;4992606;28;20024;-77
2021/06/08 11:55:40;;;;;;;20.65;12.02;;;22.00;74.20;;;;;;4998071;28;20022;-75
2021/06/08 11:58:33;;;;;;;20.80;12.65;;;21.90;73.80;;;;;;4991361;28;20021;-76
2021/06/08 12:00:59;;;;;;;20.15;12.48;;;21.90;72.00;;;;;;4989830;28;20105;-75
2021/06/08 12:03:33;;;;;;;21.33;12.40;;;21.90;73.70;;;;;;4990056;28;20448;-77
2021/06/08 12:05:59;;;;;;;21.75;12.18;;;21.90;73.50;;;;;;4991275;28;20037;-76
2021/06/08 12:08:27;;;;;;;20.15;11.82;;;21.90;73.00;;;;;;4993240;28;20382;-75
2021/06/08 12:10:53;;;;;;;19.90;11.57;;;21.80;73.40;;;;;;4989847;28;20462;-77
2021/06/08 12:13:28;;;;;;;18.67;10.48;;;21.80;73.50;;;;;;4989960;28;20331;-76
2021/06/08 12:15:54;;;;;;;21.60;10.10;;;21.80;73.10;;;;;;4986322;28;20033;-77
2021/06/08 12:18:38;;;;;;;15.38;8.43;;;21.90;73.10;;;;;;4990850;28;20053;-77
2021/06/08 12:21:25;;;;;;;15.63;8.40;;;21.90;73.00;;;;;;4990095;28;20405;-77
2021/06/08 12:23:51;;;;;;;20.27;9.07;;;22.00;72.30;;;;;;4989958;28;20366;-77
2021/06/08 12:26:22;;;;;;;19.50;9.20;;;22.00;72.20;;;;;;4992219;28;20117;-77
2021/06/08 12:29:09;;;;;;;27.05;8.80;;;22.00;71.70;;;;;;4991267;28;20022;-77
2021/06/08 12:31:36;;;;;;;18.55;9.13;;;22.10;72.30;;;;;;4986899;28;20106;-77
2021/06/08 12:34:13;;;;;;;16.00;8.15;;;22.10;72.20;;;;;;4990927;28;20019;-77
2021/06/08 12:36:40;;;;;;;17.67;9.02;;;22.20;71.30;;;;;;4990529;28;20461;-78
2021/06/08 12:39:11;;;;;;;17.88;9.18;;;22.30;71.60;;;;;;4991662;28;20069;-78
2021/06/08 12:41:37;;;;;;;17.20;8.48;;;22.40;71.30;;;;;;4988643;28;20267;-77
2021/06/08 12:44:02;;;;;;;17.83;8.15;;;22.40;71.30;;;;;;4994122;28;20041;-79
2021/06/08 12:46:32;;;;;;;18.63;8.05;;;22.50;71.40;;;;;;5001213;28;20026;-79
2021/06/08 12:49:04;;;;;;;19.45;10.18;;;22.60;71.80;;;;;;4992189;28;20057;-77
2021/06/08 12:51:34;;;;;;;17.95;10.52;;;22.60;70.80;;;;;;4994112;28;20505;-77
2021/06/08 12:54:01;;;;;;;19.65;9.27;;;22.70;70.20;;;;;;4980347;28;20027;-78